sensor_id;sensor_type;location;lat;lon;timestamp;pressure;altitude;pressure_sealevel;temperature;humidity
75051;BME280;63628;47.656;11.310;2022-10-16T00:00:53;94883.28;;;15.21;76.37
75051;BME280;63628;47.656;11.310;2022-10-16T00:03:19;94883.84;;;15.28;76.36
75051;BME280;63628;47.656;11.310;2022-10-16T00:05:45;94871.59;;;15.32;76.28
75051;BME280;63628;47.656;11.310;2022-10-16T00:08:12;94869.72;;;15.28;76.41
75051;BME280;63628;47.656;11.310;2022-10-16T00:10:40;94878.53;;;15.33;76.43
75051;BME280;63628;47.656;11.310;2022-10-16T00:13:07;94885.19;;;15.31;76.75
75051;BME280;63628;47.656;11.310;2022-10-16T00:15:37;94883.59;;;15.30;76.42
75051;BME280;63628;47.656;11.310;2022-10-16T00:18:05;94876.94;;;15.32;76.51
75051;BME280;63628;47.656;11.310;2022-10-16T00:20:34;94889.47;;;15.32;75.96
75051;BME280;63628;47.656;11.310;2022-10-16T00:23:01;94892.41;;;15.35;75.75
75051;BME280;63628;47.656;11.310;2022-10-16T00:25:27;94904.63;;;12.77;75.23
75051;BME280;63628;47.656;11.310;2022-10-16T00:27:53;94896.78;;;14.13;79.54
75051;BME280;63628;47.656;11.310;2022-10-16T00:30:20;94891.69;;;14.98;77.26
75051;BME280;63628;47.656;11.310;2022-10-16T00:32:46;94892.84;;;15.17;76.41
75051;BME280;63628;47.656;11.310;2022-10-16T00:35:13;94899.84;;;15.28;75.66
75051;BME280;63628;47.656;11.310;2022-10-16T00:37:39;94897.66;;;15.20;76.09
75051;BME280;63628;47.656;11.310;2022-10-16T00:40:06;94897.78;;;14.61;69.08
75051;BME280;63628;47.656;11.310;2022-10-16T00:42:33;94894.16;;;15.09;76.47
75051;BME280;63628;47.656;11.310;2022-10-16T00:44:59;94900.41;;;14.29;77.34
75051;BME280;63628;47.656;11.310;2022-10-16T00:47:37;94900.94;;;12.45;75.16
75051;BME280;63628;47.656;11.310;2022-10-16T00:50:09;94897.97;;;14.27;79.71
75051;BME280;63628;47.656;11.310;2022-10-16T00:52:39;94891.06;;;14.53;70.45
75051;BME280;63628;47.656;11.310;2022-10-16T00:55:09;94888.34;;;14.80;76.96
75051;BME280;63628;47.656;11.310;2022-10-16T00:57:36;94881.81;;;14.98;76.38
75051;BME280;63628;47.656;11.310;2022-10-16T01:00:06;94892.03;;;15.11;76.40
75051;BME280;63628;47.656;11.310;2022-10-16T01:02:33;94896.31;;;14.43;69.41
75051;BME280;63628;47.656;11.310;2022-10-16T01:04:59;94901.94;;;13.71;80.23
75051;BME280;63628;47.656;11.310;2022-10-16T01:21:03;94897.88;;;12.69;80.55
75051;BME280;63628;47.656;11.310;2022-10-16T01:23:51;94905.53;;;12.04;75.16
75051;BME280;63628;47.656;11.310;2022-10-16T01:28:54;94900.53;;;14.71;76.57
75051;BME280;63628;47.656;11.310;2022-10-16T01:31:25;94895.53;;;14.80;76.41
75051;BME280;63628;47.656;11.310;2022-10-16T01:34:03;94902.50;;;14.86;76.69
75051;BME280;63628;47.656;11.310;2022-10-16T01:36:41;94901.69;;;14.85;76.26
75051;BME280;63628;47.656;11.310;2022-10-16T01:39:11;94903.34;;;14.91;76.11
75051;BME280;63628;47.656;11.310;2022-10-16T01:41:42;94901.97;;;14.89;75.97
75051;BME280;63628;47.656;11.310;2022-10-16T01:44:22;94902.28;;;14.93;75.88
75051;BME280;63628;47.656;11.310;2022-10-16T01:46:52;94912.38;;;14.90;75.54
75051;BME280;63628;47.656;11.310;2022-10-16T01:49:21;94900.34;;;14.83;76.19
75051;BME280;63628;47.656;11.310;2022-10-16T01:51:52;94902.72;;;14.79;76.30
75051;BME280;63628;47.656;11.310;2022-10-16T01:54:23;94903.03;;;14.88;75.93
75051;BME280;63628;47.656;11.310;2022-10-16T01:56:53;94908.13;;;14.89;76.21
75051;BME280;63628;47.656;11.310;2022-10-16T01:59:21;94910.50;;;14.86;76.22
75051;BME280;63628;47.656;11.310;2022-10-16T02:01:54;94906.38;;;13.22;70.36
75051;BME280;63628;47.656;11.310;2022-10-16T02:04:32;94902.16;;;13.91;79.01
75051;BME280;63628;47.656;11.310;2022-10-16T02:06:59;94907.38;;;14.62;76.72
75051;BME280;63628;47.656;11.310;2022-10-16T02:09:26;94908.00;;;14.74;75.85
75051;BME280;63628;47.656;11.310;2022-10-16T02:11:54;94893.38;;;14.77;75.48
75051;BME280;63628;47.656;11.310;2022-10-16T02:14:23;94898.16;;;14.75;76.40
75051;BME280;63628;47.656;11.310;2022-10-16T02:16:51;94894.69;;;14.74;75.76
75051;BME280;63628;47.656;11.310;2022-10-16T02:19:18;94896.88;;;14.82;75.61
75051;BME280;63628;47.656;11.310;2022-10-16T02:21:56;94910.16;;;14.77;74.82
75051;BME280;63628;47.656;11.310;2022-10-16T02:24:38;94905.41;;;14.84;75.00
75051;BME280;63628;47.656;11.310;2022-10-16T02:27:17;94905.06;;;13.90;78.49
75051;BME280;63628;47.656;11.310;2022-10-16T02:29:50;94892.44;;;14.56;76.50
75051;BME280;63628;47.656;11.310;2022-10-16T02:32:21;94897.09;;;14.76;75.42
75051;BME280;63628;47.656;11.310;2022-10-16T02:34:50;94906.94;;;14.75;75.38
75051;BME280;63628;47.656;11.310;2022-10-16T02:37:18;94899.81;;;14.81;75.23
75051;BME280;63628;47.656;11.310;2022-10-16T02:39:45;94893.56;;;14.65;75.64
75051;BME280;63628;47.656;11.310;2022-10-16T02:42:12;94911.69;;;14.68;75.84
75051;BME280;63628;47.656;11.310;2022-10-16T02:44:39;94911.16;;;14.66;76.13
75051;BME280;63628;47.656;11.310;2022-10-16T02:47:06;94915.47;;;14.72;75.88
75051;BME280;63628;47.656;11.310;2022-10-16T02:49:32;94911.09;;;14.61;76.00
75051;BME280;63628;47.656;11.310;2022-10-16T02:51:59;94915.13;;;14.64;75.84
75051;BME280;63628;47.656;11.310;2022-10-16T02:54:25;94913.22;;;14.32;70.89
75051;BME280;63628;47.656;11.310;2022-10-16T02:56:52;94901.50;;;14.60;75.92
75051;BME280;63628;47.656;11.310;2022-10-16T02:59:18;94909.69;;;12.45;80.30
75051;BME280;63628;47.656;11.310;2022-10-16T03:01:45;94914.91;;;13.24;72.19
75051;BME280;63628;47.656;11.310;2022-10-16T03:04:11;94917.41;;;12.63;82.04
75051;BME280;63628;47.656;11.310;2022-10-16T03:06:37;94914.50;;;14.03;77.84
75051;BME280;63628;47.656;11.310;2022-10-16T03:09:04;94917.78;;;14.37;76.86
75051;BME280;63628;47.656;11.310;2022-10-16T03:11:30;94910.09;;;14.40;76.05
75051;BME280;63628;47.656;11.310;2022-10-16T03:13:57;94915.50;;;14.45;76.08
75051;BME280;63628;47.656;11.310;2022-10-16T03:16:23;94911.88;;;13.81;71.38
75051;BME280;63628;47.656;11.310;2022-10-16T03:18:50;94904.97;;;14.07;77.19
75051;BME280;63628;47.656;11.310;2022-10-16T03:21:16;94918.69;;;13.50;72.94
75051;BME280;63628;47.656;11.310;2022-10-16T03:23:43;94917.00;;;12.88;81.25
75051;BME280;63628;47.656;11.310;2022-10-16T03:26:09;94908.44;;;14.07;77.26
75051;BME280;63628;47.656;11.310;2022-10-16T03:28:35;94912.44;;;14.32;76.82
75051;BME280;63628;47.656;11.310;2022-10-16T03:31:02;94913.81;;;14.39;76.49
75051;BME280;63628;47.656;11.310;2022-10-16T03:33:28;94924.91;;;12.66;76.41
75051;BME280;63628;47.656;11.310;2022-10-16T03:35:55;94924.22;;;11.57;80.94
75051;BME280;63628;47.656;11.310;2022-10-16T03:38:22;94920.16;;;13.62;79.25
75051;BME280;63628;47.656;11.310;2022-10-16T03:40:48;94920.19;;;14.11;76.65
75051;BME280;63628;47.656;11.310;2022-10-16T03:43:15;94909.94;;;14.25;76.52
75051;BME280;63628;47.656;11.310;2022-10-16T03:45:41;94912.91;;;14.28;76.22
75051;BME280;63628;47.656;11.310;2022-10-16T03:48:08;94910.47;;;13.73;75.41
75051;BME280;63628;47.656;11.310;2022-10-16T03:50:34;94920.34;;;14.26;76.31
75051;BME280;63628;47.656;11.310;2022-10-16T03:53:01;94912.97;;;14.34;75.71
75051;BME280;63628;47.656;11.310;2022-10-16T03:55:27;94917.28;;;14.40;75.61
75051;BME280;63628;47.656;11.310;2022-10-16T03:57:54;94913.28;;;13.23;73.33
75051;BME280;63628;47.656;11.310;2022-10-16T04:00:20;94924.75;;;13.89;77.58
75051;BME280;63628;47.656;11.310;2022-10-16T04:02:47;94919.28;;;14.01;72.63
75051;BME280;63628;47.656;11.310;2022-10-16T04:05:13;94913.59;;;14.19;76.46
75051;BME280;63628;47.656;11.310;2022-10-16T04:07:40;94916.31;;;14.24;76.08
75051;BME280;63628;47.656;11.310;2022-10-16T04:10:06;94924.34;;;12.48;81.41
75051;BME280;63628;47.656;11.310;2022-10-16T04:12:33;94928.41;;;13.83;77.54
75051;BME280;63628;47.656;11.310;2022-10-16T04:14:59;94920.13;;;14.06;76.79
75051;BME280;63628;47.656;11.310;2022-10-16T04:17:26;94923.16;;;14.15;75.64
75051;BME280;63628;47.656;11.310;2022-10-16T04:19:53;94921.84;;;14.17;76.15
75051;BME280;63628;47.656;11.310;2022-10-16T04:22:19;94922.66;;;14.18;76.38
75051;BME280;63628;47.656;11.310;2022-10-16T04:24:46;94916.63;;;14.27;75.95
75051;BME280;63628;47.656;11.310;2022-10-16T04:27:12;94918.69;;;14.20;76.22
75051;BME280;63628;47.656;11.310;2022-10-16T04:29:39;94927.03;;;14.29;75.70
75051;BME280;63628;47.656;11.310;2022-10-16T04:32:08;94924.13;;;14.31;75.72
75051;BME280;63628;47.656;11.310;2022-10-16T04:34:35;94918.34;;;11.55;79.02
75051;BME280;63628;47.656;11.310;2022-10-16T04:37:01;94926.22;;;13.58;78.94
75051;BME280;63628;47.656;11.310;2022-10-16T04:39:28;94919.72;;;13.92;76.38
75051;BME280;63628;47.656;11.310;2022-10-16T04:41:54;94917.09;;;11.98;78.27
75051;BME280;63628;47.656;11.310;2022-10-16T04:44:20;94921.34;;;13.50;78.74
75051;BME280;63628;47.656;11.310;2022-10-16T04:46:49;94919.47;;;13.94;76.81
75051;BME280;63628;47.656;11.310;2022-10-16T04:49:16;94933.53;;;11.20;82.57
75051;BME280;63628;47.656;11.310;2022-10-16T04:51:42;94920.03;;;11.85;85.07
75051;BME280;63628;47.656;11.310;2022-10-16T04:54:09;94920.16;;;13.62;78.19
75051;BME280;63628;47.656;11.310;2022-10-16T04:56:36;94922.59;;;13.86;77.37
75051;BME280;63628;47.656;11.310;2022-10-16T04:59:09;94924.53;;;13.69;77.25
75051;BME280;63628;47.656;11.310;2022-10-16T05:01:36;94921.84;;;13.90;76.79
75051;BME280;63628;47.656;11.310;2022-10-16T05:04:05;94909.63;;;13.94;76.29
75051;BME280;63628;47.656;11.310;2022-10-16T05:06:32;94919.69;;;13.66;77.51
75051;BME280;63628;47.656;11.310;2022-10-16T05:08:58;94909.16;;;13.54;73.80
75051;BME280;63628;47.656;11.310;2022-10-16T05:11:25;94912.94;;;13.80;76.79
75051;BME280;63628;47.656;11.310;2022-10-16T05:13:51;94915.25;;;13.98;76.56
75051;BME280;63628;47.656;11.310;2022-10-16T05:16:21;94909.38;;;13.96;76.52
75051;BME280;63628;47.656;11.310;2022-10-16T05:18:47;94908.38;;;13.15;77.28
75051;BME280;63628;47.656;11.310;2022-10-16T05:21:19;94898.59;;;13.81;76.92
75051;BME280;63628;47.656;11.310;2022-10-16T05:23:45;94884.84;;;13.89;76.93
75051;BME280;63628;47.656;11.310;2022-10-16T05:26:11;94895.91;;;13.59;74.33
75051;BME280;63628;47.656;11.310;2022-10-16T05:28:38;94895.78;;;13.92;76.44
75051;BME280;63628;47.656;11.310;2022-10-16T05:31:09;94895.19;;;13.85;76.80
75051;BME280;63628;47.656;11.310;2022-10-16T05:33:35;94911.63;;;13.82;74.11
75051;BME280;63628;47.656;11.310;2022-10-16T05:36:04;94905.06;;;11.67;82.54
75051;BME280;63628;47.656;11.310;2022-10-16T05:38:31;94908.75;;;11.02;85.37
75051;BME280;63628;47.656;11.310;2022-10-16T05:40:57;94905.31;;;13.23;79.77
75051;BME280;63628;47.656;11.310;2022-10-16T05:43:24;94916.94;;;12.83;77.02
75051;BME280;63628;47.656;11.310;2022-10-16T05:45:58;94923.69;;;12.41;82.26
75051;BME280;63628;47.656;11.310;2022-10-16T05:48:26;94912.31;;;13.51;78.31
75051;BME280;63628;47.656;11.310;2022-10-16T05:51:06;94932.47;;;12.41;80.09
75051;BME280;63628;47.656;11.310;2022-10-16T05:53:35;94933.16;;;13.59;77.86
75051;BME280;63628;47.656;11.310;2022-10-16T05:56:02;94934.47;;;13.78;77.16
75051;BME280;63628;47.656;11.310;2022-10-16T05:58:31;94933.81;;;13.66;77.21
75051;BME280;63628;47.656;11.310;2022-10-16T06:01:00;94947.34;;;11.85;82.21
75051;BME280;63628;47.656;11.310;2022-10-16T06:03:27;94955.03;;;11.35;86.63
75051;BME280;63628;47.656;11.310;2022-10-16T06:05:54;94956.69;;;13.28;79.74
75051;BME280;63628;47.656;11.310;2022-10-16T06:08:22;94956.09;;;13.65;77.73
75051;BME280;63628;47.656;11.310;2022-10-16T06:11:00;94954.53;;;13.47;76.40
75051;BME280;63628;47.656;11.310;2022-10-16T06:13:26;94948.38;;;13.63;77.29
75051;BME280;63628;47.656;11.310;2022-10-16T06:15:53;94966.88;;;13.75;77.38
75051;BME280;63628;47.656;11.310;2022-10-16T06:18:19;94969.81;;;12.68;80.31
75051;BME280;63628;47.656;11.310;2022-10-16T06:20:45;94972.63;;;13.12;79.67
75051;BME280;63628;47.656;11.310;2022-10-16T06:23:12;94979.34;;;13.53;77.62
75051;BME280;63628;47.656;11.310;2022-10-16T06:25:38;94974.00;;;13.31;79.96
75051;BME280;63628;47.656;11.310;2022-10-16T06:28:05;94970.59;;;13.36;78.62
75051;BME280;63628;47.656;11.310;2022-10-16T06:30:31;94974.97;;;13.63;77.47
75051;BME280;63628;47.656;11.310;2022-10-16T06:32:58;94980.69;;;13.72;76.90
75051;BME280;63628;47.656;11.310;2022-10-16T06:35:24;94978.03;;;13.72;76.86
75051;BME280;63628;47.656;11.310;2022-10-16T06:37:52;94983.34;;;13.72;77.03
75051;BME280;63628;47.656;11.310;2022-10-16T06:40:19;94989.28;;;13.79;76.71
75051;BME280;63628;47.656;11.310;2022-10-16T06:42:45;94996.78;;;13.82;76.95
75051;BME280;63628;47.656;11.310;2022-10-16T06:45:12;94997.25;;;14.23;81.42
75051;BME280;63628;47.656;11.310;2022-10-16T06:47:38;94995.69;;;15.82;82.88
75051;BME280;63628;47.656;11.310;2022-10-16T06:50:05;94991.88;;;16.35;81.57
75051;BME280;63628;47.656;11.310;2022-10-16T06:52:35;94995.97;;;15.85;83.22
75051;BME280;63628;47.656;11.310;2022-10-16T06:55:01;94995.81;;;16.12;79.22
75051;BME280;63628;47.656;11.310;2022-10-16T06:57:29;95005.44;;;15.61;79.73
75051;BME280;63628;47.656;11.310;2022-10-16T06:59:55;95015.66;;;14.46;77.39
75051;BME280;63628;47.656;11.310;2022-10-16T07:02:21;95005.78;;;14.25;77.87
75051;BME280;63628;47.656;11.310;2022-10-16T07:04:48;95018.69;;;14.33;77.77
75051;BME280;63628;47.656;11.310;2022-10-16T07:07:15;95018.28;;;15.69;81.73
75051;BME280;63628;47.656;11.310;2022-10-16T07:09:41;95021.59;;;16.64;79.19
75051;BME280;63628;47.656;11.310;2022-10-16T07:12:08;95022.41;;;16.65;76.63
75051;BME280;63628;47.656;11.310;2022-10-16T07:14:34;95027.41;;;16.36;77.39
75051;BME280;63628;47.656;11.310;2022-10-16T07:17:01;95028.66;;;17.41;79.03
75051;BME280;63628;47.656;11.310;2022-10-16T07:19:28;95030.84;;;18.45;73.82
75051;BME280;63628;47.656;11.310;2022-10-16T07:21:59;95024.56;;;18.05;70.36
75051;BME280;63628;47.656;11.310;2022-10-16T07:24:26;95038.13;;;15.51;74.64
75051;BME280;63628;47.656;11.310;2022-10-16T07:26:52;95043.72;;;14.86;76.66
75051;BME280;63628;47.656;11.310;2022-10-16T07:29:21;95051.28;;;14.67;77.11
75051;BME280;63628;47.656;11.310;2022-10-16T07:31:48;95046.09;;;14.55;77.26
75051;BME280;63628;47.656;11.310;2022-10-16T07:34:17;95050.50;;;16.05;78.33
75051;BME280;63628;47.656;11.310;2022-10-16T07:36:44;95047.34;;;16.86;74.21
75051;BME280;63628;47.656;11.310;2022-10-16T07:39:10;95054.91;;;17.75;74.43
75051;BME280;63628;47.656;11.310;2022-10-16T07:41:36;95051.66;;;17.93;72.58
75051;BME280;63628;47.656;11.310;2022-10-16T07:44:03;95051.41;;;17.80;74.58
75051;BME280;63628;47.656;11.310;2022-10-16T07:46:30;95059.28;;;16.00;72.99
75051;BME280;63628;47.656;11.310;2022-10-16T07:48:57;95062.97;;;16.41;80.04
75051;BME280;63628;47.656;11.310;2022-10-16T07:51:25;95049.22;;;17.92;73.78
75051;BME280;63628;47.656;11.310;2022-10-16T07:53:52;95067.63;;;18.29;73.58
75051;BME280;63628;47.656;11.310;2022-10-16T07:56:19;95062.22;;;19.38;69.43
75051;BME280;63628;47.656;11.310;2022-10-16T07:58:45;95066.38;;;19.20;68.68
75051;BME280;63628;47.656;11.310;2022-10-16T08:01:14;95075.75;;;17.12;69.55
75051;BME280;63628;47.656;11.310;2022-10-16T08:03:42;95074.13;;;15.49;74.05
75051;BME280;63628;47.656;11.310;2022-10-16T08:06:09;95078.38;;;15.45;78.90
75051;BME280;63628;47.656;11.310;2022-10-16T08:08:35;95081.28;;;16.17;78.00
75051;BME280;63628;47.656;11.310;2022-10-16T08:11:02;95081.56;;;18.26;77.95
75051;BME280;63628;47.656;11.310;2022-10-16T08:13:30;95072.38;;;22.21;66.00
75051;BME280;63628;47.656;11.310;2022-10-16T08:15:57;95077.00;;;23.25;63.08
75051;BME280;63628;47.656;11.310;2022-10-16T08:18:24;95079.97;;;23.73;58.53
75051;BME280;63628;47.656;11.310;2022-10-16T08:20:57;95076.78;;;24.02;58.71
75051;BME280;63628;47.656;11.310;2022-10-16T08:23:24;95084.28;;;24.27;56.31
75051;BME280;63628;47.656;11.310;2022-10-16T08:25:53;95092.13;;;24.07;52.42
75051;BME280;63628;47.656;11.310;2022-10-16T08:28:21;95075.34;;;24.66;54.37
75051;BME280;63628;47.656;11.310;2022-10-16T08:30:48;95088.84;;;24.18;55.72
75051;BME280;63628;47.656;11.310;2022-10-16T08:33:14;95082.28;;;24.11;52.38
75051;BME280;63628;47.656;11.310;2022-10-16T08:35:41;95064.66;;;25.10;52.96
75051;BME280;63628;47.656;11.310;2022-10-16T08:38:07;95079.69;;;25.76;50.20
75051;BME280;63628;47.656;11.310;2022-10-16T08:40:36;95064.03;;;25.65;51.81
75051;BME280;63628;47.656;11.310;2022-10-16T08:43:17;95084.84;;;24.16;52.52
75051;BME280;63628;47.656;11.310;2022-10-16T08:46:06;95081.63;;;24.84;49.72
75051;BME280;63628;47.656;11.310;2022-10-16T08:48:52;95080.00;;;25.49;53.35
75051;BME280;63628;47.656;11.310;2022-10-16T08:51:20;95088.59;;;25.34;51.03
75051;BME280;63628;47.656;11.310;2022-10-16T08:53:56;95086.31;;;24.61;51.15
75051;BME280;63628;47.656;11.310;2022-10-16T08:56:25;95093.34;;;26.23;51.37
75051;BME280;63628;47.656;11.310;2022-10-16T08:58:53;95107.13;;;24.44;56.97
75051;BME280;63628;47.656;11.310;2022-10-16T09:01:39;95096.31;;;26.85;50.96
75051;BME280;63628;47.656;11.310;2022-10-16T09:04:38;95101.69;;;25.83;51.40
75051;BME280;63628;47.656;11.310;2022-10-16T09:07:32;95108.03;;;27.57;48.04
75051;BME280;63628;47.656;11.310;2022-10-16T09:10:32;95105.69;;;28.42;47.05
75051;BME280;63628;47.656;11.310;2022-10-16T09:16:07;95113.66;;;28.15;47.59
75051;BME280;63628;47.656;11.310;2022-10-16T09:19:14;95112.28;;;27.46;47.73
75051;BME280;63628;47.656;11.310;2022-10-16T09:21:45;95117.53;;;27.51;47.93
75051;BME280;63628;47.656;11.310;2022-10-16T09:24:15;95118.72;;;28.04;45.25
75051;BME280;63628;47.656;11.310;2022-10-16T09:26:43;95123.34;;;28.69;46.99
75051;BME280;63628;47.656;11.310;2022-10-16T09:29:14;95134.59;;;27.81;47.63
75051;BME280;63628;47.656;11.310;2022-10-16T09:31:42;95121.66;;;27.28;49.26
75051;BME280;63628;47.656;11.310;2022-10-16T09:34:20;95139.06;;;26.68;47.41
75051;BME280;63628;47.656;11.310;2022-10-16T09:36:50;95141.31;;;27.63;48.22
75051;BME280;63628;47.656;11.310;2022-10-16T09:39:17;95129.97;;;29.05;46.70
75051;BME280;63628;47.656;11.310;2022-10-16T09:41:44;95141.09;;;29.49;45.17
75051;BME280;63628;47.656;11.310;2022-10-16T09:44:25;95133.84;;;28.14;47.63
75051;BME280;63628;47.656;11.310;2022-10-16T09:47:13;95140.06;;;29.17;43.28
75051;BME280;63628;47.656;11.310;2022-10-16T09:49:54;95126.97;;;28.61;45.09
75051;BME280;63628;47.656;11.310;2022-10-16T09:52:21;95135.00;;;26.82;46.47
75051;BME280;63628;47.656;11.310;2022-10-16T09:54:56;95122.72;;;26.76;44.90
75051;BME280;63628;47.656;11.310;2022-10-16T09:57:24;95132.41;;;22.86;50.53
75051;BME280;63628;47.656;11.310;2022-10-16T09:59:56;95129.56;;;22.77;57.93
75051;BME280;63628;47.656;11.310;2022-10-16T10:02:36;95127.34;;;25.43;45.93
75051;BME280;63628;47.656;11.310;2022-10-16T10:05:05;95141.28;;;23.50;49.64
75051;BME280;63628;47.656;11.310;2022-10-16T10:07:37;95135.69;;;24.58;48.29
75051;BME280;63628;47.656;11.310;2022-10-16T10:10:16;95130.06;;;28.06;45.12
75051;BME280;63628;47.656;11.310;2022-10-16T10:12:45;95127.06;;;29.62;45.96
75051;BME280;63628;47.656;11.310;2022-10-16T10:15:13;95114.38;;;29.42;42.64
75051;BME280;63628;47.656;11.310;2022-10-16T10:17:51;95124.28;;;30.43;41.42
75051;BME280;63628;47.656;11.310;2022-10-16T10:20:32;95119.81;;;29.42;41.83
75051;BME280;63628;47.656;11.310;2022-10-16T10:23:01;95114.53;;;30.14;37.53
75051;BME280;63628;47.656;11.310;2022-10-16T10:26:15;95117.81;;;30.79;41.01
75051;BME280;63628;47.656;11.310;2022-10-16T10:37:02;95101.34;;;30.75;37.64
75051;BME280;63628;47.656;11.310;2022-10-16T10:39:43;95096.47;;;31.51;38.45
75051;BME280;63628;47.656;11.310;2022-10-16T10:42:23;95100.38;;;31.50;35.08
75051;BME280;63628;47.656;11.310;2022-10-16T10:50:25;95108.25;;;27.73;42.96
75051;BME280;63628;47.656;11.310;2022-10-16T11:01:40;95095.25;;;27.07;39.16
75051;BME280;63628;47.656;11.310;2022-10-16T11:06:57;95085.94;;;27.79;38.89
75051;BME280;63628;47.656;11.310;2022-10-16T11:09:30;95100.25;;;27.89;38.22
75051;BME280;63628;47.656;11.310;2022-10-16T11:12:16;95094.66;;;25.56;43.19
75051;BME280;63628;47.656;11.310;2022-10-16T11:17:42;95099.31;;;24.82;42.84
75051;BME280;63628;47.656;11.310;2022-10-16T11:20:32;95099.94;;;26.60;38.87
75051;BME280;63628;47.656;11.310;2022-10-16T11:23:08;95090.59;;;26.32;38.14
75051;BME280;63628;47.656;11.310;2022-10-16T11:25:39;95097.88;;;25.76;40.29
75051;BME280;63628;47.656;11.310;2022-10-16T11:28:14;95101.66;;;25.23;41.21
75051;BME280;63628;47.656;11.310;2022-10-16T11:30:59;95078.53;;;25.34;40.88
75051;BME280;63628;47.656;11.310;2022-10-16T11:36:21;95085.31;;;27.11;39.06
75051;BME280;63628;47.656;11.310;2022-10-16T11:39:14;95087.41;;;26.38;39.18
75051;BME280;63628;47.656;11.310;2022-10-16T11:44:55;95087.50;;;25.60;41.64
75051;BME280;63628;47.656;11.310;2022-10-16T11:47:33;95090.75;;;22.73;48.83
75051;BME280;63628;47.656;11.310;2022-10-16T11:50:39;95078.81;;;24.50;38.10
75051;BME280;63628;47.656;11.310;2022-10-16T11:56:06;95071.34;;;23.49;50.95
75051;BME280;63628;47.656;11.310;2022-10-16T12:04:03;95079.38;;;21.19;57.88
75051;BME280;63628;47.656;11.310;2022-10-16T12:06:37;95070.94;;;23.55;47.59
75051;BME280;63628;47.656;11.310;2022-10-16T12:09:14;95069.28;;;24.21;44.41
75051;BME280;63628;47.656;11.310;2022-10-16T12:11:43;95061.84;;;22.05;51.83
75051;BME280;63628;47.656;11.310;2022-10-16T12:16:57;95073.72;;;23.50;48.54
75051;BME280;63628;47.656;11.310;2022-10-16T12:19:27;95069.59;;;23.66;48.67
75051;BME280;63628;47.656;11.310;2022-10-16T12:21:57;95068.88;;;22.48;54.55
75051;BME280;63628;47.656;11.310;2022-10-16T12:24:39;95065.28;;;21.46;53.87
75051;BME280;63628;47.656;11.310;2022-10-16T12:27:27;95071.19;;;22.54;48.46
75051;BME280;63628;47.656;11.310;2022-10-16T12:30:05;95058.41;;;23.59;45.20
75051;BME280;63628;47.656;11.310;2022-10-16T12:32:33;95067.38;;;23.68;47.63
75051;BME280;63628;47.656;11.310;2022-10-16T12:35:20;95068.88;;;22.61;48.11
75051;BME280;63628;47.656;11.310;2022-10-16T12:37:48;95065.59;;;23.28;45.20
75051;BME280;63628;47.656;11.310;2022-10-16T12:40:25;95064.50;;;22.93;52.77
75051;BME280;63628;47.656;11.310;2022-10-16T12:42:52;95067.69;;;20.67;60.49
75051;BME280;63628;47.656;11.310;2022-10-16T12:45:26;95061.53;;;20.43;61.34
75051;BME280;63628;47.656;11.310;2022-10-16T12:47:55;95061.19;;;20.92;55.66
75051;BME280;63628;47.656;11.310;2022-10-16T12:50:38;95066.31;;;22.84;47.55
75051;BME280;63628;47.656;11.310;2022-10-16T12:53:36;95062.31;;;23.17;47.79
75051;BME280;63628;47.656;11.310;2022-10-16T12:58:44;95065.97;;;22.99;44.83
75051;BME280;63628;47.656;11.310;2022-10-16T13:01:29;95058.34;;;23.15;44.99
75051;BME280;63628;47.656;11.310;2022-10-16T13:23:22;95060.47;;;20.63;60.23
75051;BME280;63628;47.656;11.310;2022-10-16T13:28:42;95047.78;;;20.20;62.49
75051;BME280;63628;47.656;11.310;2022-10-16T13:31:19;95058.84;;;19.90;64.39
75051;BME280;63628;47.656;11.310;2022-10-16T13:33:49;95058.31;;;20.65;60.88
75051;BME280;63628;47.656;11.310;2022-10-16T13:36:24;95057.22;;;20.18;63.65
75051;BME280;63628;47.656;11.310;2022-10-16T13:39:43;95057.75;;;20.20;64.21
75051;BME280;63628;47.656;11.310;2022-10-16T13:42:11;95068.63;;;20.05;64.74
75051;BME280;63628;47.656;11.310;2022-10-16T13:44:49;95064.06;;;20.05;64.77
75051;BME280;63628;47.656;11.310;2022-10-16T13:47:22;95070.56;;;20.28;63.82
75051;BME280;63628;47.656;11.310;2022-10-16T13:52:27;95069.94;;;20.36;60.94
75051;BME280;63628;47.656;11.310;2022-10-16T13:54:54;95057.31;;;22.01;52.51
75051;BME280;63628;47.656;11.310;2022-10-16T13:57:27;95058.09;;;22.20;55.25
75051;BME280;63628;47.656;11.310;2022-10-16T13:59:54;95059.97;;;22.06;56.71
75051;BME280;63628;47.656;11.310;2022-10-16T14:02:24;95056.69;;;22.23;55.33
75051;BME280;63628;47.656;11.310;2022-10-16T14:04:52;95058.25;;;22.10;55.10
75051;BME280;63628;47.656;11.310;2022-10-16T14:07:24;95056.97;;;21.75;59.09
75051;BME280;63628;47.656;11.310;2022-10-16T14:09:53;95060.69;;;21.79;57.66
75051;BME280;63628;47.656;11.310;2022-10-16T14:12:21;95060.31;;;20.97;62.17
75051;BME280;63628;47.656;11.310;2022-10-16T14:14:54;95059.84;;;20.71;61.82
75051;BME280;63628;47.656;11.310;2022-10-16T14:17:26;95065.66;;;20.78;63.42
75051;BME280;63628;47.656;11.310;2022-10-16T14:19:56;95063.31;;;20.52;64.15
75051;BME280;63628;47.656;11.310;2022-10-16T14:25:27;95066.13;;;21.04;62.62
75051;BME280;63628;47.656;11.310;2022-10-16T14:28:13;95067.56;;;20.06;66.27
75051;BME280;63628;47.656;11.310;2022-10-16T14:30:55;95076.00;;;19.94;66.57
75051;BME280;63628;47.656;11.310;2022-10-16T14:33:25;95068.16;;;20.26;65.80
75051;BME280;63628;47.656;11.310;2022-10-16T14:38:27;95073.88;;;19.62;68.31
75051;BME280;63628;47.656;11.310;2022-10-16T14:40:57;95078.66;;;19.70;68.25
75051;BME280;63628;47.656;11.310;2022-10-16T14:43:36;95070.34;;;19.67;68.29
75051;BME280;63628;47.656;11.310;2022-10-16T14:46:06;95077.94;;;19.59;69.04